Miyakojima, Japan

10:25 PM JST on February 14, 2016 (GMT +0900)
Miyako | | Change Station
CLOSE
Current Station
Airport
Location: Miyakojima,
Elevation: 135 ft
Nearby Weather Stations

Elev 135 ft 24.79 °N, 125.28 °E | Updated 2 hours ago

Light Rain Showers
Light Showers Rain
63 °F
Feels Like 63 °F
N
22
Wind Variable Wind from North
Gusts 36 mph

Today
High -- | Low -- °F
--% Chance of Precip.
Yesterday
High -- | Low -- °F
Precip. -- in
Pressure 30.01 in
Visibility 6.2 miles
Clouds Scattered Clouds 1200 ft
Mostly Cloudy 1600 ft
Dew Point 59 °F
Humidity 88%
Rainfall 0.00 in
Snow Depth Not available.
7:14 AM 6:32 PM
Waxing Crescent, 41% visible
METAR ROMY 141100Z 01019G31KT 9999 -SHRA SCT012 BKN016 17/15 Q1016
Pressure 30.01 in
Visibility 6.2 miles
Clouds Scattered Clouds 1200 ft
Mostly Cloudy 1600 ft
Dew Point 59 °F
Humidity 88%
Rainfall 0.00 in
Snow Depth Not available.
7:14 AM 6:32 PM
Waxing Crescent, 41% visible
METAR ROMY 141100Z 01019G31KT 9999 -SHRA SCT012 BKN016 17/15 Q1016

10-Day Weather Forecast

No radar image for this location.
×

Almanac

Astronomy

Feb. 14, 2016 Rise Set
Actual Time
Civil Twilight
Nautical Twilight
Astronomical Twilight
Moon
Length of Visible Light
Length of Day
Tomorrow will be .
, % of the Moon is Illuminated

Today's Extremes

Country Highs Country Lows

Community

WunderPhotos

Upload Photos

1,892,785 photos uploaded!

WunderBlog® & News

Nearby

Air Quality

  Air Quality AQ Index Pollutant
Not available.

Snow Depth

Station Depth Elevation

Earthquake Activity

City Distance Mag. Time & Date
Minimum magnitude displayed is 2.5.

Coastal Water Temperatures

Place Temperature

Stations

Nearby Weather Stations

Station Location Temp. Windchill Dew Point Humidity Wind Precip. Elev Updated Type